createdAt,value
2018-03-19T00:01:30.297Z,-2.20
2018-03-19T00:03:58.441Z,-2.20
2018-03-19T00:06:26.562Z,-2.30
2018-03-19T00:08:54.701Z,-2.40
2018-03-19T00:11:22.812Z,-2.40
2018-03-19T00:13:50.979Z,-2.50
2018-03-19T00:16:19.092Z,-2.60
2018-03-19T00:18:47.224Z,-2.60
2018-03-19T00:21:16.397Z,-2.70
2018-03-19T00:23:44.621Z,-2.70
2018-03-19T00:26:13.515Z,-2.80
2018-03-19T00:28:42.425Z,-2.80
2018-03-19T00:31:10.542Z,-2.90
2018-03-19T00:33:38.678Z,-2.80
2018-03-19T00:36:06.796Z,-2.90
2018-03-19T00:38:34.928Z,-2.90
2018-03-19T00:41:03.044Z,-2.90
2018-03-19T00:43:31.187Z,-2.90
2018-03-19T00:45:59.349Z,-3.00
2018-03-19T00:48:27.484Z,-3.00
2018-03-19T00:50:56.369Z,-3.00
2018-03-19T00:53:24.520Z,-3.10
2018-03-19T00:55:52.619Z,-3.10
2018-03-19T00:58:21.532Z,-3.10
2018-03-19T01:00:49.652Z,-3.10
2018-03-19T01:03:17.787Z,-3.10
2018-03-19T01:05:45.909Z,-3.10
2018-03-19T01:08:14.109Z,-3.10
2018-03-19T01:10:42.996Z,-3.00
2018-03-19T01:13:11.892Z,-3.00
2018-03-19T01:15:40.784Z,-3.00
2018-03-19T01:18:09.672Z,-3.10
2018-03-19T01:20:38.560Z,-3.00
2018-03-19T01:23:06.704Z,-3.10
2018-03-19T01:25:34.833Z,-3.10
2018-03-19T01:28:02.964Z,-3.00
2018-03-19T01:30:31.085Z,-3.10
2018-03-19T01:32:59.225Z,-3.10
2018-03-19T01:35:27.333Z,-3.10
2018-03-19T01:37:55.454Z,-3.10
2018-03-19T01:40:23.587Z,-3.10
2018-03-19T01:42:51.724Z,-3.10
2018-03-19T01:45:20.636Z,-3.20
2018-03-19T01:47:48.734Z,-3.20
2018-03-19T01:50:16.876Z,-3.20
2018-03-19T01:52:49.014Z,-3.20
2018-03-19T01:55:17.157Z,-3.20
2018-03-19T01:57:45.266Z,-3.20
2018-03-19T02:00:13.416Z,-3.20
2018-03-19T02:02:41.523Z,-3.20
2018-03-19T02:05:10.419Z,-3.20
2018-03-19T02:07:40.080Z,-3.30
2018-03-19T02:10:08.211Z,-3.30
2018-03-19T02:12:36.342Z,-3.30
2018-03-19T02:15:04.490Z,-3.30
2018-03-19T02:17:32.591Z,-3.30
2018-03-19T02:20:00.742Z,-3.40
2018-03-19T02:22:28.875Z,-3.40
2018-03-19T02:24:57.018Z,-3.40
2018-03-19T02:27:25.133Z,-3.40
2018-03-19T02:29:53.280Z,-3.50
2018-03-19T02:32:22.190Z,-3.50
2018-03-19T02:34:50.320Z,-3.50
2018-03-19T02:37:18.441Z,-3.50
2018-03-19T02:39:46.598Z,-3.50
2018-03-19T02:42:15.477Z,-3.60
2018-03-19T02:44:44.394Z,-3.50
2018-03-19T02:47:12.519Z,-3.50
2018-03-19T02:49:40.660Z,-3.50
2018-03-19T02:52:08.782Z,-3.80
2018-03-19T02:54:37.028Z,-3.80
2018-03-19T02:57:05.136Z,-3.60
2018-03-19T02:59:34.052Z,-3.80
2018-03-19T03:02:02.163Z,-3.80
2018-03-19T03:04:30.995Z,-3.90
2018-03-19T03:07:00.376Z,-4.10
2018-03-19T03:09:28.501Z,-4.10
2018-03-19T03:11:56.635Z,-4.10
2018-03-19T03:14:25.549Z,-4.00
2018-03-19T03:16:53.661Z,-4.00
2018-03-19T03:19:21.831Z,-4.30
2018-03-19T03:21:49.944Z,-4.50
2018-03-19T03:24:18.874Z,-4.50
2018-03-19T03:26:47.001Z,-4.50
2018-03-19T03:29:15.283Z,-4.50
2018-03-19T03:31:43.389Z,-4.50
2018-03-19T03:34:11.519Z,-4.40
2018-03-19T03:36:39.640Z,-4.30
2018-03-19T03:39:07.995Z,-4.30
2018-03-19T03:41:36.895Z,-4.30
2018-03-19T03:44:05.036Z,-4.30
2018-03-19T03:46:33.154Z,-4.30
2018-03-19T03:49:01.297Z,-4.40
2018-03-19T03:51:30.175Z,-4.50
2018-03-19T03:53:58.311Z,-4.50
2018-03-19T03:56:26.433Z,-4.50
2018-03-19T03:58:55.341Z,-4.50
2018-03-19T04:01:23.464Z,-4.50
2018-03-19T04:03:51.651Z,-4.60
2018-03-19T04:06:20.971Z,-4.60
2018-03-19T04:08:49.897Z,-4.00
2018-03-19T04:11:18.037Z,-4.10
2018-03-19T04:13:46.960Z,-4.00
2018-03-19T04:16:15.071Z,-4.00
2018-03-19T04:18:43.197Z,-4.00
2018-03-19T04:21:11.373Z,-3.90
2018-03-19T04:23:39.501Z,-3.90
2018-03-19T04:26:07.650Z,-3.90
2018-03-19T04:28:35.776Z,-3.90
2018-03-19T04:31:04.765Z,-3.90
2018-03-19T04:33:32.896Z,-4.00
2018-03-19T04:36:01.816Z,-3.80
2018-03-19T04:38:30.294Z,-3.90
2018-03-19T04:40:58.438Z,-3.90
2018-03-19T04:43:26.573Z,-3.90
2018-03-19T04:45:54.709Z,-3.90
2018-03-19T04:48:22.824Z,-3.90
2018-03-19T04:50:50.959Z,-4.00
2018-03-19T04:53:19.859Z,-4.00
2018-03-19T04:55:47.997Z,-4.00
2018-03-19T04:58:16.119Z,-4.00
2018-03-19T05:00:45.018Z,-4.00
2018-03-19T05:03:13.157Z,-4.00
2018-03-19T05:05:42.093Z,-4.00
2018-03-19T05:08:10.191Z,-4.00
2018-03-19T05:10:39.117Z,-4.20
2018-03-19T05:13:07.264Z,-4.20
2018-03-19T05:15:35.479Z,-4.30
2018-03-19T05:18:03.727Z,-4.20
2018-03-19T05:20:33.471Z,-4.30
2018-03-19T05:23:04.766Z,-4.30
2018-03-19T05:25:35.788Z,-4.30
2018-03-19T05:28:07.868Z,-4.30
2018-03-19T05:30:36.133Z,-4.20
2018-03-19T05:33:04.260Z,-4.30
2018-03-19T05:35:32.410Z,-4.20
2018-03-19T05:38:01.296Z,-4.30
2018-03-19T05:40:29.442Z,-4.30
2018-03-19T05:42:57.569Z,-4.40
2018-03-19T05:45:25.700Z,-4.40
2018-03-19T05:47:53.820Z,-4.30
2018-03-19T05:50:21.966Z,-3.80
2018-03-19T05:52:50.078Z,-3.10
2018-03-19T05:55:18.983Z,-1.00
2018-03-19T05:57:49.266Z,0.00
2018-03-19T06:00:17.430Z,0.00
2018-03-19T06:02:46.606Z,1.10
2018-03-19T06:05:14.762Z,1.70
2018-03-19T06:07:42.859Z,2.50
2018-03-19T06:10:10.992Z,2.70
2018-03-19T06:12:39.869Z,4.50
2018-03-19T06:15:08.774Z,5.20
2018-03-19T06:17:38.153Z,5.20
2018-03-19T06:20:06.293Z,5.50
2018-03-19T06:22:34.395Z,6.00
2018-03-19T06:25:02.540Z,6.60
2018-03-19T06:27:30.672Z,6.80
2018-03-19T06:29:59.659Z,8.50
2018-03-19T06:32:28.543Z,8.50
2018-03-19T06:34:56.681Z,8.40
2018-03-19T06:37:24.810Z,8.50
2018-03-19T06:39:52.937Z,9.90
2018-03-19T06:42:21.045Z,10.80
2018-03-19T06:44:49.960Z,11.00
2018-03-19T06:47:18.083Z,11.00
2018-03-19T06:49:46.272Z,11.90
2018-03-19T06:52:14.449Z,12.00
2018-03-19T06:54:43.367Z,13.40
2018-03-19T06:57:11.870Z,13.40
2018-03-19T06:59:40.051Z,13.40
2018-03-19T07:02:08.168Z,13.60
2018-03-19T07:04:37.071Z,14.80
2018-03-19T07:07:05.967Z,14.30
2018-03-19T07:09:34.863Z,15.00
2018-03-19T07:12:03.854Z,14.90
2018-03-19T07:14:32.732Z,13.30
2018-03-19T07:17:01.977Z,12.30
2018-03-19T07:19:30.285Z,12.30
2018-03-19T07:21:58.420Z,12.20
2018-03-19T07:24:26.993Z,12.20
2018-03-19T07:26:55.193Z,12.50
2018-03-19T07:29:23.305Z,11.20
2018-03-19T07:31:51.443Z,10.40
2018-03-19T07:34:20.348Z,10.40
2018-03-19T07:36:48.479Z,10.40
2018-03-19T07:39:16.583Z,10.70
2018-03-19T07:41:44.723Z,11.30
2018-03-19T07:44:12.840Z,11.70
2018-03-19T07:46:40.991Z,11.30
2018-03-19T07:49:09.102Z,11.90
2018-03-19T07:51:37.261Z,12.50
2018-03-19T07:54:05.386Z,12.80
2018-03-19T07:56:33.531Z,12.30
2018-03-19T07:59:01.644Z,12.00
2018-03-19T08:01:30.555Z,10.80
2018-03-19T08:03:58.663Z,10.80
2018-03-19T08:06:26.811Z,11.50
2018-03-19T08:08:54.920Z,11.80
2018-03-19T08:11:23.820Z,11.10
2018-03-19T08:13:51.976Z,11.10
2018-03-19T08:16:20.903Z,10.80
2018-03-19T08:18:49.028Z,10.80
2018-03-19T08:21:17.194Z,10.70
2018-03-19T08:23:46.324Z,10.00
2018-03-19T08:26:15.221Z,11.00
2018-03-19T08:28:44.109Z,10.70
2018-03-19T08:31:13.013Z,11.60
2018-03-19T08:33:41.149Z,11.50
2018-03-19T08:36:09.302Z,12.80
2018-03-19T08:38:37.787Z,13.00
2018-03-19T08:41:05.958Z,13.50
2018-03-19T08:43:34.103Z,13.10
2018-03-19T08:46:02.251Z,13.80
2018-03-19T08:48:31.151Z,13.80
2018-03-19T08:51:00.245Z,13.20
2018-03-19T08:53:28.422Z,13.20
2018-03-19T08:55:56.741Z,13.20
2018-03-19T08:58:24.856Z,13.30
2018-03-19T09:00:53.769Z,13.40
2018-03-19T09:03:21.893Z,13.30
2018-03-19T09:05:50.024Z,12.50
2018-03-19T09:08:18.145Z,12.60
2018-03-19T09:10:46.293Z,11.50
2018-03-19T09:13:14.418Z,11.00
2018-03-19T09:15:43.323Z,10.20
2018-03-19T09:18:12.205Z,9.80
2018-03-19T09:20:41.156Z,9.30
2018-03-19T09:23:09.270Z,9.30
2018-03-19T09:25:38.193Z,10.40
2018-03-19T09:28:06.317Z,10.40
2018-03-19T09:30:34.456Z,10.60
2018-03-19T09:33:02.580Z,11.10
2018-03-19T09:35:30.969Z,11.40
2018-03-19T09:37:59.115Z,11.30
2018-03-19T09:40:27.273Z,12.10
2018-03-19T09:42:55.385Z,12.00
2018-03-19T09:45:24.275Z,10.60
2018-03-19T09:50:21.798Z,9.70
2018-03-19T09:52:49.948Z,9.10
2018-03-19T09:55:18.076Z,9.80
2018-03-19T09:57:47.004Z,9.70
2018-03-19T10:00:15.113Z,9.60
2018-03-19T10:02:44.547Z,9.30
2018-03-19T10:05:13.458Z,9.60
2018-03-19T10:07:42.373Z,9.40
2018-03-19T10:10:10.558Z,9.40
2018-03-19T10:12:38.676Z,9.50
2018-03-19T10:15:06.788Z,9.80
2018-03-19T10:17:34.939Z,9.70
2018-03-19T10:20:03.824Z,6.30
2018-03-19T10:22:32.774Z,6.00
2018-03-19T10:25:00.884Z,6.00
2018-03-19T10:27:29.059Z,5.60
2018-03-19T10:29:57.182Z,4.80
2018-03-19T10:32:25.340Z,4.00
2018-03-19T10:34:53.444Z,3.10
2018-03-19T10:37:21.700Z,2.50
2018-03-19T10:39:49.855Z,2.40
2018-03-19T10:42:17.990Z,2.30
2018-03-19T10:44:46.107Z,1.80
2018-03-19T10:47:14.268Z,1.60
2018-03-19T10:49:42.395Z,1.20
2018-03-19T10:52:10.521Z,0.90
2018-03-19T10:54:38.634Z,1.00
2018-03-19T10:57:06.772Z,1.20
2018-03-19T10:59:34.898Z,1.40
2018-03-19T11:02:09.395Z,1.20
2018-03-19T11:04:37.513Z,1.20
2018-03-19T11:07:11.436Z,1.20
2018-03-19T11:09:47.112Z,1.10
2018-03-19T11:12:16.019Z,1.10
2018-03-19T11:14:44.157Z,1.00
2018-03-19T11:17:14.876Z,1.00
2018-03-19T11:19:43.084Z,1.00
2018-03-19T11:22:11.225Z,1.10
2018-03-19T11:24:39.342Z,1.20
2018-03-19T11:27:07.493Z,1.10
2018-03-19T11:29:35.617Z,1.10
2018-03-19T11:32:03.757Z,1.20
2018-03-19T11:34:31.880Z,1.30
2018-03-19T11:37:00.009Z,1.40
2018-03-19T11:39:28.146Z,1.50
2018-03-19T11:41:58.158Z,1.30
2018-03-19T11:44:27.164Z,1.40
2018-03-19T11:46:55.779Z,1.40
2018-03-19T11:49:23.894Z,1.30
2018-03-19T11:51:52.036Z,1.20
2018-03-19T11:54:20.161Z,1.30
2018-03-19T11:56:49.068Z,1.50
2018-03-19T11:59:17.190Z,1.50
2018-03-19T12:01:45.359Z,1.40
2018-03-19T12:04:13.483Z,1.50
2018-03-19T12:06:42.394Z,1.70
2018-03-19T12:09:10.512Z,1.60
2018-03-19T12:11:38.677Z,1.70
2018-03-19T12:14:06.799Z,1.70
2018-03-19T12:16:35.702Z,1.60
2018-03-19T12:19:03.899Z,1.60
2018-03-19T12:21:32.037Z,1.70
2018-03-19T12:24:00.914Z,1.50
2018-03-19T12:26:29.794Z,1.50
2018-03-19T12:28:57.890Z,1.40
2018-03-19T12:31:26.778Z,1.50
2018-03-19T12:33:55.638Z,1.50
2018-03-19T12:36:23.767Z,1.50
2018-03-19T12:38:51.901Z,1.60
2018-03-19T12:41:19.994Z,1.70
2018-03-19T12:43:48.106Z,1.40
2018-03-19T12:46:16.216Z,1.40
2018-03-19T12:48:44.346Z,1.50
2018-03-19T12:51:12.454Z,1.50
2018-03-19T12:53:40.583Z,1.60
2018-03-19T12:56:08.667Z,1.60
2018-03-19T12:58:36.800Z,1.70
2018-03-19T13:01:04.902Z,1.70
2018-03-19T13:03:33.031Z,1.60
2018-03-19T13:06:01.900Z,1.60
2018-03-19T13:08:30.029Z,1.60
2018-03-19T13:10:58.972Z,1.50
2018-03-19T13:13:27.098Z,1.50
2018-03-19T13:15:55.194Z,1.70
2018-03-19T13:18:28.219Z,1.70
2018-03-19T13:20:57.238Z,1.80
2018-03-19T13:23:26.234Z,1.80
2018-03-19T13:25:55.614Z,1.80
2018-03-19T13:28:24.498Z,1.90
2018-03-19T13:30:53.755Z,1.80
2018-03-19T13:33:21.866Z,1.80
2018-03-19T13:35:49.961Z,1.80
2018-03-19T13:38:18.079Z,1.80
2018-03-19T13:40:46.179Z,1.90
2018-03-19T13:43:14.310Z,2.00
2018-03-19T13:45:42.411Z,2.00
2018-03-19T13:48:10.537Z,2.00
2018-03-19T13:50:39.399Z,2.10
2018-03-19T13:53:07.522Z,2.10
2018-03-19T13:55:35.631Z,2.00
2018-03-19T13:58:03.834Z,2.00
2018-03-19T14:00:32.331Z,1.80
2018-03-19T14:03:01.527Z,1.70
2018-03-19T14:05:29.732Z,1.70
2018-03-19T14:07:57.892Z,1.70
2018-03-19T14:10:26.789Z,1.80
2018-03-19T14:12:54.957Z,1.80
2018-03-19T14:15:23.845Z,2.20
2018-03-19T14:17:52.731Z,2.30
2018-03-19T14:20:21.590Z,2.40
2018-03-19T14:22:49.714Z,2.40
2018-03-19T14:25:17.810Z,2.50
2018-03-19T14:27:45.955Z,2.40
2018-03-19T14:30:14.047Z,2.40
2018-03-19T14:32:42.176Z,2.60
2018-03-19T14:35:10.270Z,2.70
2018-03-19T14:37:38.408Z,2.60
2018-03-19T14:40:06.497Z,2.60
2018-03-19T14:42:35.487Z,2.60
2018-03-19T14:45:04.534Z,2.60
2018-03-19T14:47:32.727Z,2.60
2018-03-19T14:50:01.205Z,2.70
2018-03-19T14:52:29.326Z,2.70
2018-03-19T14:54:58.203Z,2.60
2018-03-19T14:57:27.111Z,2.60
2018-03-19T14:59:55.974Z,2.60
2018-03-19T15:02:24.094Z,2.60
2018-03-19T15:04:52.194Z,2.70
2018-03-19T15:07:20.326Z,2.80
2018-03-19T15:09:48.436Z,2.80
2018-03-19T15:12:16.544Z,2.90
2018-03-19T15:14:44.673Z,2.90
2018-03-19T15:17:12.834Z,3.00
2018-03-19T15:19:41.685Z,2.80
2018-03-19T15:22:10.124Z,2.80
2018-03-19T15:24:38.237Z,2.70
2018-03-19T15:27:07.114Z,2.80
2018-03-19T15:29:35.240Z,2.70
2018-03-19T15:32:03.383Z,2.80
2018-03-19T15:34:32.278Z,2.90
2018-03-19T15:37:00.402Z,2.90
2018-03-19T15:39:28.529Z,2.90
2018-03-19T15:41:57.395Z,2.90
2018-03-19T15:44:25.531Z,2.90
2018-03-19T15:46:53.649Z,2.80
2018-03-19T15:49:21.805Z,2.90
2018-03-19T15:51:49.907Z,3.00
2018-03-19T15:54:18.791Z,2.90
2018-03-19T15:56:46.918Z,2.80
2018-03-19T15:59:15.026Z,2.70
2018-03-19T16:01:43.126Z,2.70
2018-03-19T16:04:11.255Z,2.60
2018-03-19T16:06:39.348Z,2.70
2018-03-19T16:09:07.477Z,2.80
2018-03-19T16:11:35.575Z,2.80
2018-03-19T16:14:03.716Z,2.80
2018-03-19T16:16:31.802Z,2.80
2018-03-19T16:18:59.928Z,2.80
2018-03-19T16:21:28.781Z,2.90
2018-03-19T16:23:56.918Z,2.90
2018-03-19T16:26:25.014Z,3.00
2018-03-19T16:28:54.882Z,2.90
2018-03-19T16:31:23.762Z,2.40
2018-03-19T16:33:52.647Z,2.30
2018-03-19T16:36:20.770Z,2.30
2018-03-19T16:38:48.895Z,2.20
2018-03-19T16:41:16.994Z,2.10
2018-03-19T16:43:45.881Z,1.90
2018-03-19T16:46:14.140Z,1.90
2018-03-19T16:48:42.288Z,2.00
2018-03-19T16:51:10.417Z,1.90
2018-03-19T16:53:39.134Z,1.90
2018-03-19T16:56:07.710Z,1.90
2018-03-19T16:58:35.829Z,1.90
2018-03-19T17:01:04.100Z,1.70
2018-03-19T17:03:32.222Z,1.70
2018-03-19T17:06:00.327Z,1.70
2018-03-19T17:08:28.465Z,1.70
2018-03-19T17:10:56.580Z,1.60
2018-03-19T17:13:24.705Z,1.50
2018-03-19T17:15:52.797Z,1.40
2018-03-19T17:18:21.515Z,1.30
2018-03-19T17:20:50.913Z,1.20
2018-03-19T17:23:19.030Z,1.00
2018-03-19T17:25:48.881Z,0.90
2018-03-19T17:28:16.989Z,0.90
2018-03-19T17:30:45.111Z,0.80
2018-03-19T17:33:13.230Z,0.80
2018-03-19T17:35:41.323Z,0.70
2018-03-19T17:38:10.211Z,0.60
2018-03-19T17:40:38.305Z,0.60
2018-03-19T17:43:06.422Z,0.50
2018-03-19T17:45:34.512Z,0.40
2018-03-19T17:48:02.601Z,0.40
2018-03-19T17:50:31.481Z,0.40
2018-03-19T17:52:59.590Z,0.40
2018-03-19T17:55:27.713Z,0.30
2018-03-19T17:57:55.818Z,0.20
2018-03-19T18:00:24.704Z,0.00
2018-03-19T18:02:53.577Z,0.00
2018-03-19T18:05:21.699Z,0.00
2018-03-19T18:07:49.776Z,0.00
2018-03-19T18:10:17.899Z,0.00
2018-03-19T18:12:46.003Z,-0.10
2018-03-19T18:15:14.128Z,-0.10
2018-03-19T18:17:42.232Z,-0.10
2018-03-19T18:20:11.117Z,-0.20
2018-03-19T18:22:39.987Z,-0.30
2018-03-19T18:25:08.921Z,-0.40
2018-03-19T18:27:37.013Z,-0.40
2018-03-19T18:30:05.148Z,-0.40
2018-03-19T18:32:34.022Z,-0.40
2018-03-19T18:35:02.237Z,-0.40
2018-03-19T18:37:30.354Z,-0.40
2018-03-19T18:39:58.532Z,-0.50
2018-03-19T18:42:26.630Z,-0.40
2018-03-19T18:44:55.533Z,-0.60
2018-03-19T18:47:24.415Z,-0.70
2018-03-19T18:49:53.301Z,-0.60
2018-03-19T18:52:22.185Z,-0.60
2018-03-19T18:54:50.306Z,-0.70
2018-03-19T18:57:18.410Z,-0.70
2018-03-19T18:59:46.558Z,-0.80
2018-03-19T19:02:14.689Z,-0.80
2018-03-19T19:04:43.584Z,-0.90
2018-03-19T19:07:12.485Z,-0.90
2018-03-19T19:09:40.619Z,-0.90
2018-03-19T19:12:08.719Z,-0.90
2018-03-19T19:14:37.614Z,-1.00
2018-03-19T19:17:06.518Z,-1.10
2018-03-19T19:19:34.638Z,-1.10
2018-03-19T19:22:02.738Z,-1.20
2018-03-19T19:24:31.641Z,-1.30
2018-03-19T19:27:00.522Z,-1.20
2018-03-19T19:29:29.418Z,-1.20
2018-03-19T19:31:58.288Z,-1.20
2018-03-19T19:34:26.445Z,-1.30
2018-03-19T19:36:54.562Z,-1.40
2018-03-19T19:39:23.444Z,-1.50
2018-03-19T19:41:52.322Z,-1.40
2018-03-19T19:44:20.462Z,-1.50
2018-03-19T19:46:48.556Z,-1.40
2018-03-19T19:49:16.693Z,-1.50
2018-03-19T19:51:44.802Z,-1.60
2018-03-19T19:54:12.920Z,-1.60
2018-03-19T19:56:41.012Z,-1.70
2018-03-19T19:59:09.143Z,-1.70
2018-03-19T20:01:38.014Z,-1.80
2018-03-19T20:04:06.129Z,-1.80
2018-03-19T20:06:34.232Z,-1.80
2018-03-19T20:09:02.361Z,-1.80
2018-03-19T20:11:31.237Z,-1.90
2018-03-19T20:13:59.382Z,-1.90
2018-03-19T20:16:27.567Z,-2.10
2018-03-19T20:18:55.713Z,-2.10
2018-03-19T20:21:23.851Z,-2.00
2018-03-19T20:23:52.735Z,-2.10
2018-03-19T20:26:20.917Z,-2.10
2018-03-19T20:28:49.036Z,-2.10
2018-03-19T20:31:17.154Z,-2.10
2018-03-19T20:33:46.018Z,-2.20
2018-03-19T20:36:14.135Z,-2.20
2018-03-19T20:38:42.355Z,-2.10
2018-03-19T20:41:10.463Z,-2.10
2018-03-19T20:43:39.380Z,-2.10
2018-03-19T20:46:08.330Z,-2.20
2018-03-19T20:48:36.421Z,-2.20
2018-03-19T20:51:05.307Z,-2.30
2018-03-19T20:53:34.175Z,-2.30
2018-03-19T20:56:02.364Z,-2.30
2018-03-19T20:58:30.466Z,-2.30
2018-03-19T21:00:58.598Z,-2.30
2018-03-19T21:03:26.701Z,-2.40
2018-03-19T21:05:55.578Z,-2.40
2018-03-19T21:08:24.457Z,-2.50
2018-03-19T21:10:53.149Z,-2.50
2018-03-19T21:13:22.025Z,-2.50
2018-03-19T21:15:50.166Z,-2.50
2018-03-19T21:18:18.513Z,-2.40
2018-03-19T21:20:46.633Z,-2.40
2018-03-19T21:23:14.739Z,-2.50
2018-03-19T21:25:43.670Z,-2.50
2018-03-19T21:28:11.796Z,-2.50
2018-03-19T21:30:39.913Z,-2.40
2018-03-19T21:33:08.044Z,-2.60
2018-03-19T21:35:36.189Z,-2.50
2018-03-19T21:38:04.334Z,-2.60
2018-03-19T21:40:32.452Z,-2.70
2018-03-19T21:43:00.548Z,-2.70
2018-03-19T21:45:29.437Z,-2.70
2018-03-19T21:47:58.305Z,-2.80
2018-03-19T21:50:26.475Z,-2.70
2018-03-19T21:52:54.631Z,-2.80
2018-03-19T21:55:23.056Z,-2.80
2018-03-19T21:57:52.354Z,-2.80
2018-03-19T22:00:20.859Z,-2.80
2018-03-19T22:02:48.996Z,-2.90
2018-03-19T22:05:17.093Z,-2.90
2018-03-19T22:07:45.201Z,-3.00
2018-03-19T22:10:13.335Z,-3.10
2018-03-19T22:12:41.449Z,-3.10
2018-03-19T22:15:09.583Z,-3.10
2018-03-19T22:17:38.446Z,-3.30
2018-03-19T22:20:06.669Z,-3.30
2018-03-19T22:22:34.767Z,-3.30
2018-03-19T22:25:03.002Z,-3.30
2018-03-19T22:27:31.138Z,-3.30
2018-03-19T22:29:59.288Z,-3.40
2018-03-19T22:32:27.404Z,-3.50
2018-03-19T22:34:55.567Z,-3.40
2018-03-19T22:37:23.671Z,-3.40
2018-03-19T22:39:51.806Z,-3.40
2018-03-19T22:42:19.900Z,-3.40
2018-03-19T22:44:48.784Z,-3.20
2018-03-19T22:47:16.891Z,-3.30
2018-03-19T22:49:45.001Z,-3.30
2018-03-19T22:52:13.127Z,-3.40
2018-03-19T22:54:41.224Z,-3.50
2018-03-19T22:57:09.347Z,-3.60
2018-03-19T22:59:38.208Z,-3.60
2018-03-19T23:02:06.342Z,-3.60
2018-03-19T23:04:46.294Z,-3.60
2018-03-19T23:07:14.422Z,-3.70
2018-03-19T23:09:42.529Z,-3.70
2018-03-19T23:12:10.650Z,-3.80
2018-03-19T23:14:38.769Z,-3.90
2018-03-19T23:17:06.885Z,-3.80
2018-03-19T23:19:36.617Z,-3.80
2018-03-19T23:22:04.820Z,-3.80
2018-03-19T23:24:32.917Z,-3.70
2018-03-19T23:27:01.050Z,-3.70
2018-03-19T23:29:29.153Z,-3.80
2018-03-19T23:31:58.040Z,-3.70
2018-03-19T23:34:26.909Z,-3.70
2018-03-19T23:36:55.046Z,-3.70
2018-03-19T23:39:23.152Z,-3.70
2018-03-19T23:41:51.291Z,-3.70
2018-03-19T23:44:19.389Z,-3.70
2018-03-19T23:46:47.524Z,-3.70
2018-03-19T23:49:15.632Z,-4.00
2018-03-19T23:51:43.773Z,-4.10
2018-03-19T23:54:11.895Z,-4.00
2018-03-19T23:56:40.027Z,-4.00
2018-03-19T23:59:08.151Z,-4.00
